createdAt,value
2018-03-08T00:00:07.030Z,0.00
2018-03-08T00:01:06.949Z,0.00
2018-03-08T00:02:06.868Z,0.00
2018-03-08T00:03:06.787Z,0.00
2018-03-08T00:04:06.707Z,0.00
2018-03-08T00:05:06.624Z,0.00
2018-03-08T00:06:06.545Z,0.00
2018-03-08T00:07:06.464Z,0.00
2018-03-08T00:08:06.382Z,0.00
2018-03-08T00:09:06.305Z,0.00
2018-03-08T00:10:06.221Z,0.00
2018-03-08T00:11:06.139Z,0.00
2018-03-08T00:12:06.058Z,0.00
2018-03-08T00:13:05.978Z,0.00
2018-03-08T00:14:05.898Z,0.00
2018-03-08T00:15:05.814Z,0.00
2018-03-08T00:16:05.735Z,0.00
2018-03-08T00:17:05.654Z,0.00
2018-03-08T00:18:05.574Z,0.00
2018-03-08T00:19:05.492Z,0.00
2018-03-08T00:20:05.412Z,0.00
2018-03-08T00:21:05.329Z,0.00
2018-03-08T00:22:05.249Z,0.00
2018-03-08T00:23:05.168Z,0.00
2018-03-08T00:24:05.088Z,0.00
2018-03-08T00:25:05.011Z,0.00
2018-03-08T00:26:04.927Z,0.00
2018-03-08T00:27:04.845Z,0.00
2018-03-08T00:28:04.764Z,0.00
2018-03-08T00:29:04.684Z,0.00
2018-03-08T00:30:04.602Z,0.00
2018-03-08T00:31:04.522Z,0.00
2018-03-08T00:32:04.441Z,0.00
2018-03-08T00:33:04.361Z,0.00
2018-03-08T00:34:04.279Z,0.00
2018-03-08T00:35:04.198Z,0.00
2018-03-08T00:36:04.118Z,0.00
2018-03-08T00:37:04.036Z,0.00
2018-03-08T00:38:03.956Z,0.00
2018-03-08T00:39:03.874Z,0.00
2018-03-08T00:40:03.794Z,0.00
2018-03-08T00:41:03.712Z,0.00
2018-03-08T00:42:03.632Z,0.00
2018-03-08T00:43:03.550Z,0.00
2018-03-08T00:44:03.468Z,0.00
2018-03-08T00:45:03.388Z,0.00
2018-03-08T00:46:03.308Z,0.00
2018-03-08T00:47:03.226Z,0.00
2018-03-08T00:48:03.145Z,0.00
2018-03-08T00:49:03.064Z,0.00
2018-03-08T00:50:02.984Z,0.00
2018-03-08T00:51:02.902Z,0.00
2018-03-08T00:52:02.820Z,0.00
2018-03-08T00:53:02.739Z,0.00
2018-03-08T00:54:02.658Z,0.00
2018-03-08T00:55:02.576Z,0.00
2018-03-08T00:56:02.496Z,0.00
2018-03-08T00:57:02.413Z,0.00
2018-03-08T00:58:02.334Z,0.00
2018-03-08T00:59:02.255Z,0.00
2018-03-08T01:00:02.171Z,0.00
2018-03-08T01:01:02.090Z,0.00
2018-03-08T01:02:02.009Z,0.00
2018-03-08T01:03:01.927Z,0.00
2018-03-08T01:04:01.845Z,0.00
2018-03-08T01:05:01.767Z,0.00
2018-03-08T01:06:01.684Z,0.00
2018-03-08T01:07:01.602Z,0.00
2018-03-08T01:08:01.553Z,0.00
2018-03-08T01:09:01.440Z,0.00
2018-03-08T01:10:01.359Z,0.00
2018-03-08T01:11:01.276Z,0.00
2018-03-08T01:12:01.194Z,0.00
2018-03-08T01:13:01.114Z,0.00
2018-03-08T01:14:01.033Z,0.00
2018-03-08T01:15:00.952Z,0.00
2018-03-08T01:16:00.870Z,0.00
2018-03-08T01:17:00.789Z,0.00
2018-03-08T01:18:00.707Z,0.00
2018-03-08T01:19:00.625Z,0.00
2018-03-08T01:20:00.544Z,0.00
2018-03-08T01:21:00.461Z,0.00
2018-03-08T01:22:00.381Z,0.00
2018-03-08T01:23:00.303Z,0.00
2018-03-08T01:24:00.217Z,0.00
2018-03-08T01:25:00.136Z,0.00
2018-03-08T01:26:00.056Z,0.00
2018-03-08T01:26:59.991Z,0.00
2018-03-08T01:27:59.890Z,0.00
2018-03-08T01:28:59.811Z,0.00
2018-03-08T01:29:59.729Z,0.00
2018-03-08T01:30:59.647Z,0.00
2018-03-08T01:31:59.565Z,0.00
2018-03-08T01:32:59.485Z,0.00
2018-03-08T01:33:59.403Z,0.00
2018-03-08T01:34:59.319Z,0.00
2018-03-08T01:35:59.239Z,0.00
2018-03-08T01:36:59.157Z,0.00
2018-03-08T01:37:59.075Z,0.00
2018-03-08T01:38:58.994Z,0.00
2018-03-08T01:39:58.912Z,0.00
2018-03-08T01:40:58.830Z,0.00
2018-03-08T01:41:58.750Z,0.00
2018-03-08T01:42:58.667Z,0.00
2018-03-08T01:43:58.585Z,0.00
2018-03-08T01:44:58.506Z,0.00
2018-03-08T01:45:58.423Z,0.00
2018-03-08T01:46:58.340Z,0.00
2018-03-08T01:47:58.258Z,0.00
2018-03-08T01:48:58.176Z,0.00
2018-03-08T01:49:58.096Z,0.00
2018-03-08T01:50:58.013Z,0.00
2018-03-08T01:51:57.932Z,0.00
2018-03-08T01:52:57.850Z,0.00
2018-03-08T01:53:57.769Z,0.00
2018-03-08T01:54:57.688Z,0.00
2018-03-08T01:55:57.603Z,0.00
2018-03-08T01:56:57.528Z,0.00
2018-03-08T01:57:57.441Z,0.00
2018-03-08T01:58:57.358Z,0.00
2018-03-08T01:59:57.276Z,0.00
2018-03-08T02:00:57.195Z,0.00
2018-03-08T02:01:57.113Z,0.00
2018-03-08T02:02:57.031Z,0.00
2018-03-08T02:03:56.950Z,0.00
2018-03-08T02:04:56.868Z,0.00
2018-03-08T02:05:56.786Z,0.00
2018-03-08T02:06:56.704Z,0.00
2018-03-08T02:07:56.622Z,0.00
2018-03-08T02:08:56.540Z,0.00
2018-03-08T02:09:56.459Z,0.00
2018-03-08T02:10:56.376Z,0.00
2018-03-08T02:11:56.294Z,0.00
2018-03-08T02:12:56.212Z,0.00
2018-03-08T02:13:56.131Z,0.00
2018-03-08T02:14:56.048Z,0.00
2018-03-08T02:15:55.967Z,0.00
2018-03-08T02:16:55.886Z,0.00
2018-03-08T02:17:55.803Z,0.00
2018-03-08T02:18:55.721Z,0.00
2018-03-08T02:19:55.789Z,0.00
2018-03-08T02:20:55.557Z,0.00
2018-03-08T02:21:55.475Z,0.00
2018-03-08T02:22:55.392Z,0.00
2018-03-08T02:23:55.311Z,0.00
2018-03-08T02:24:55.230Z,0.00
2018-03-08T02:25:55.147Z,0.00
2018-03-08T02:26:55.065Z,0.00
2018-03-08T02:27:54.983Z,0.00
2018-03-08T02:28:54.901Z,0.00
2018-03-08T02:29:54.822Z,0.00
2018-03-08T02:30:54.737Z,0.00
2018-03-08T02:31:54.656Z,0.00
2018-03-08T02:32:54.573Z,0.00
2018-03-08T02:33:54.491Z,0.00
2018-03-08T02:34:54.408Z,0.00
2018-03-08T02:35:54.327Z,0.00
2018-03-08T02:36:54.244Z,0.00
2018-03-08T02:37:54.164Z,0.00
2018-03-08T02:38:54.080Z,0.00
2018-03-08T02:39:54.000Z,0.00
2018-03-08T02:40:53.918Z,0.00
2018-03-08T02:41:53.835Z,0.00
2018-03-08T02:42:53.754Z,0.00
2018-03-08T02:43:53.674Z,0.00
2018-03-08T02:44:53.593Z,0.00
2018-03-08T02:45:53.518Z,0.00
2018-03-08T02:46:53.425Z,0.00
2018-03-08T02:47:53.344Z,0.00
2018-03-08T02:48:53.262Z,0.00
2018-03-08T02:49:53.181Z,0.00
2018-03-08T02:50:53.098Z,0.00
2018-03-08T02:51:53.018Z,0.00
2018-03-08T02:52:52.934Z,0.00
2018-03-08T02:53:52.853Z,0.00
2018-03-08T02:54:52.770Z,0.00
2018-03-08T02:55:52.687Z,0.00
2018-03-08T02:56:52.608Z,0.00
2018-03-08T02:57:52.527Z,0.00
2018-03-08T02:58:52.442Z,0.00
2018-03-08T02:59:52.359Z,0.00
2018-03-08T03:00:52.290Z,0.00
2018-03-08T03:01:52.197Z,0.00
2018-03-08T03:02:52.114Z,0.00
2018-03-08T03:03:52.039Z,0.00
2018-03-08T03:04:51.952Z,0.00
2018-03-08T03:05:51.872Z,0.00
2018-03-08T03:06:51.785Z,0.00
2018-03-08T03:07:51.704Z,0.00
2018-03-08T03:08:51.622Z,0.00
2018-03-08T03:09:51.581Z,0.00
2018-03-08T03:10:51.457Z,0.00
2018-03-08T03:11:51.375Z,0.00
2018-03-08T03:12:51.294Z,0.00
2018-03-08T03:13:51.214Z,0.00
2018-03-08T03:14:51.130Z,0.00
2018-03-08T03:15:51.048Z,0.00
2018-03-08T03:16:50.966Z,0.00
2018-03-08T03:17:50.884Z,0.00
2018-03-08T03:18:50.800Z,0.00
2018-03-08T03:19:50.719Z,0.00
2018-03-08T03:20:50.640Z,0.00
2018-03-08T03:21:50.555Z,0.00
2018-03-08T03:22:50.472Z,0.00
2018-03-08T03:23:50.393Z,0.00
2018-03-08T03:24:50.309Z,0.00
2018-03-08T03:25:50.227Z,0.00
2018-03-08T03:26:50.144Z,0.00
2018-03-08T03:27:50.115Z,0.00
2018-03-08T03:28:49.982Z,0.00
2018-03-08T03:29:49.899Z,0.00
2018-03-08T03:30:49.817Z,0.00
2018-03-08T03:31:49.733Z,0.00
2018-03-08T03:32:49.951Z,0.00
2018-03-08T03:33:49.570Z,0.00
2018-03-08T03:34:49.487Z,0.00
2018-03-08T03:35:49.408Z,0.00
2018-03-08T03:36:49.324Z,0.00
2018-03-08T03:37:49.243Z,0.00
2018-03-08T03:38:49.159Z,0.00
2018-03-08T03:39:49.077Z,0.00
2018-03-08T03:40:48.996Z,0.00
2018-03-08T03:41:48.915Z,0.00
2018-03-08T03:42:48.831Z,0.00
2018-03-08T03:43:48.749Z,0.00
2018-03-08T03:44:48.667Z,0.00
2018-03-08T03:45:48.585Z,0.00
2018-03-08T03:46:48.503Z,0.00
2018-03-08T03:47:48.420Z,0.00
2018-03-08T03:48:48.340Z,0.00
2018-03-08T03:49:48.256Z,0.00
2018-03-08T03:50:48.173Z,0.00
2018-03-08T03:51:48.091Z,0.00
2018-03-08T03:52:48.012Z,0.00
2018-03-08T03:53:47.927Z,0.00
2018-03-08T03:54:47.846Z,0.00
2018-03-08T03:55:47.760Z,0.00
2018-03-08T03:56:47.680Z,0.00
2018-03-08T03:57:47.598Z,0.00
2018-03-08T03:58:47.513Z,0.00
2018-03-08T03:59:47.436Z,0.00
2018-03-08T04:00:47.352Z,0.00
2018-03-08T04:01:47.270Z,0.00
2018-03-08T04:02:47.185Z,0.00
2018-03-08T04:03:47.106Z,0.00
2018-03-08T04:04:47.020Z,0.00
2018-03-08T04:05:46.939Z,0.00
2018-03-08T04:06:46.856Z,0.00
2018-03-08T04:07:46.774Z,0.00
2018-03-08T04:08:46.695Z,0.00
2018-03-08T04:09:46.910Z,0.00
2018-03-08T04:10:46.526Z,0.00
2018-03-08T04:11:46.445Z,0.00
2018-03-08T04:12:46.364Z,0.00
2018-03-08T04:13:46.281Z,0.00
2018-03-08T04:14:46.199Z,0.00
2018-03-08T04:15:46.116Z,0.00
2018-03-08T04:16:46.035Z,0.00
2018-03-08T04:17:45.952Z,0.00
2018-03-08T04:18:45.869Z,0.00
2018-03-08T04:19:45.787Z,0.00
2018-03-08T04:20:45.705Z,0.00
2018-03-08T04:21:45.623Z,0.00
2018-03-08T04:22:45.540Z,0.00
2018-03-08T04:23:45.459Z,0.00
2018-03-08T04:24:45.376Z,0.00
2018-03-08T04:25:45.295Z,0.00
2018-03-08T04:26:45.212Z,0.00
2018-03-08T04:27:45.129Z,0.00
2018-03-08T04:28:45.048Z,0.00
2018-03-08T04:29:44.966Z,0.00
2018-03-08T04:30:44.885Z,0.00
2018-03-08T04:31:44.801Z,0.00
2018-03-08T04:32:44.722Z,0.00
2018-03-08T04:33:44.636Z,0.00
2018-03-08T04:34:44.555Z,0.00
2018-03-08T04:35:44.473Z,0.00
2018-03-08T04:36:44.390Z,0.00
2018-03-08T04:37:44.308Z,0.00
2018-03-08T04:38:44.224Z,0.00
2018-03-08T04:39:44.143Z,0.00
2018-03-08T04:40:44.061Z,0.00
2018-03-08T04:41:43.979Z,0.00
2018-03-08T04:42:43.898Z,0.00
2018-03-08T04:43:43.814Z,0.00
2018-03-08T04:44:43.734Z,0.00
2018-03-08T04:45:43.655Z,0.00
2018-03-08T04:46:43.567Z,0.00
2018-03-08T04:47:43.485Z,0.00
2018-03-08T04:48:43.403Z,0.00
2018-03-08T04:49:43.322Z,0.00
2018-03-08T04:50:43.237Z,0.00
2018-03-08T04:51:43.156Z,0.00
2018-03-08T04:52:43.074Z,0.00
2018-03-08T04:53:42.992Z,0.00
2018-03-08T04:54:42.908Z,0.00
2018-03-08T04:55:42.827Z,0.00
2018-03-08T04:56:42.745Z,0.00
2018-03-08T04:57:42.666Z,0.00
2018-03-08T04:58:42.580Z,0.00
2018-03-08T04:59:42.498Z,0.00
2018-03-08T05:00:42.415Z,0.00
2018-03-08T05:01:42.334Z,0.00
2018-03-08T05:02:42.251Z,0.00
2018-03-08T05:03:42.169Z,0.00
2018-03-08T05:04:42.087Z,0.00
2018-03-08T05:05:42.005Z,0.00
2018-03-08T05:06:41.922Z,0.00
2018-03-08T05:07:41.840Z,0.00
2018-03-08T05:08:41.761Z,0.00
2018-03-08T05:09:41.676Z,0.00
2018-03-08T05:10:41.592Z,0.00
2018-03-08T05:11:41.510Z,0.00
2018-03-08T05:12:41.436Z,0.00
2018-03-08T05:13:41.346Z,0.00
2018-03-08T05:14:41.263Z,0.00
2018-03-08T05:15:41.182Z,0.00
2018-03-08T05:16:41.100Z,0.00
2018-03-08T05:17:41.018Z,0.00
2018-03-08T05:18:40.935Z,0.00
2018-03-08T05:19:40.853Z,0.00
2018-03-08T05:20:40.772Z,0.00
2018-03-08T05:21:40.688Z,0.00
2018-03-08T05:22:40.606Z,0.00
2018-03-08T05:23:40.524Z,0.00
2018-03-08T05:24:40.442Z,0.00
2018-03-08T05:25:40.360Z,0.00
2018-03-08T05:26:40.278Z,0.00
2018-03-08T05:27:40.195Z,4.00
2018-03-08T05:28:40.114Z,4.00
2018-03-08T05:29:40.032Z,0.00
2018-03-08T05:30:39.949Z,4.00
2018-03-08T05:31:39.865Z,4.00
2018-03-08T05:32:39.787Z,4.00
2018-03-08T05:33:39.704Z,4.00
2018-03-08T05:34:39.621Z,4.00
2018-03-08T05:35:39.538Z,8.00
2018-03-08T05:36:39.457Z,8.00
2018-03-08T05:37:39.374Z,12.00
2018-03-08T05:38:39.292Z,12.00
2018-03-08T05:39:39.211Z,12.00
2018-03-08T05:40:39.130Z,16.00
2018-03-08T05:41:39.048Z,20.00
2018-03-08T05:42:38.964Z,24.00
2018-03-08T05:43:38.883Z,24.00
2018-03-08T05:44:38.802Z,28.00
2018-03-08T05:45:38.719Z,36.00
2018-03-08T05:46:38.642Z,44.00
2018-03-08T05:47:38.555Z,48.00
2018-03-08T05:48:38.521Z,56.00
2018-03-08T05:49:38.393Z,64.00
2018-03-08T05:50:38.319Z,76.00
2018-03-08T05:51:38.228Z,80.00
2018-03-08T05:52:38.153Z,88.00
2018-03-08T05:53:38.065Z,104.00
2018-03-08T05:54:38.008Z,116.00
2018-03-08T05:55:37.901Z,124.00
2018-03-08T05:56:37.820Z,148.00
2018-03-08T05:57:37.742Z,160.00
2018-03-08T05:58:37.655Z,176.00
2018-03-08T05:59:37.573Z,172.00
2018-03-08T06:00:37.492Z,184.00
2018-03-08T06:01:37.410Z,192.00
2018-03-08T06:02:37.327Z,200.00
2018-03-08T06:03:37.246Z,204.00
2018-03-08T06:04:37.163Z,224.00
2018-03-08T06:05:37.083Z,232.00
2018-03-08T06:06:37.000Z,260.00
2018-03-08T06:07:36.920Z,264.00
2018-03-08T06:08:36.837Z,244.00
2018-03-08T06:09:36.756Z,268.00
2018-03-08T06:10:36.673Z,284.00
2018-03-08T06:11:36.592Z,312.00
2018-03-08T06:12:36.510Z,336.00
2018-03-08T06:13:36.428Z,356.00
2018-03-08T06:14:36.346Z,372.00
2018-03-08T06:15:36.270Z,404.00
2018-03-08T06:16:36.183Z,432.00
2018-03-08T06:17:36.102Z,504.00
2018-03-08T06:18:36.022Z,568.00
2018-03-08T06:19:35.937Z,576.00
2018-03-08T06:20:35.860Z,568.00
2018-03-08T06:21:35.775Z,588.00
2018-03-08T06:22:35.690Z,644.00
2018-03-08T06:23:35.610Z,636.00
2018-03-08T06:24:35.528Z,644.00
2018-03-08T06:25:35.447Z,656.00
2018-03-08T06:26:35.368Z,692.00
2018-03-08T06:27:35.282Z,760.00
2018-03-08T06:28:35.201Z,928.00
2018-03-08T06:29:35.120Z,988.00
2018-03-08T06:30:35.036Z,1016.00
2018-03-08T06:31:34.955Z,1032.00
2018-03-08T06:32:34.875Z,1052.00
2018-03-08T06:33:34.792Z,952.00
2018-03-08T06:34:34.710Z,1000.00
2018-03-08T06:35:34.630Z,968.00
2018-03-08T06:36:34.548Z,848.00
2018-03-08T06:37:34.465Z,756.00
2018-03-08T06:38:34.382Z,732.00
2018-03-08T06:39:34.302Z,748.00
2018-03-08T06:40:34.222Z,724.00
2018-03-08T06:41:34.138Z,768.00
2018-03-08T06:42:34.057Z,920.00
2018-03-08T06:43:33.975Z,952.00
2018-03-08T06:44:33.894Z,988.00
2018-03-08T06:45:33.811Z,1168.00
2018-03-08T06:46:33.732Z,1192.00
2018-03-08T06:47:33.647Z,1024.00
2018-03-08T06:48:33.567Z,1056.00
2018-03-08T06:49:33.486Z,1080.00
2018-03-08T06:50:33.403Z,1224.00
2018-03-08T06:51:33.322Z,1264.00
2018-03-08T06:52:33.240Z,1396.00
2018-03-08T06:53:33.164Z,1220.00
2018-03-08T06:54:33.078Z,1176.00
2018-03-08T06:55:32.996Z,1092.00
2018-03-08T06:56:32.916Z,1136.00
2018-03-08T06:57:32.834Z,1364.00
2018-03-08T06:58:32.751Z,1684.00
2018-03-08T06:59:32.670Z,1708.00
2018-03-08T07:00:32.591Z,1732.00
2018-03-08T07:01:32.508Z,1428.00
2018-03-08T07:02:32.426Z,1092.00
2018-03-08T07:03:32.344Z,840.00
2018-03-08T07:04:32.267Z,648.00
2018-03-08T07:05:32.182Z,516.00
2018-03-08T07:06:32.101Z,412.00
2018-03-08T07:07:32.020Z,448.00
2018-03-08T07:08:31.967Z,608.00
2018-03-08T07:09:31.856Z,572.00
2018-03-08T07:10:31.774Z,592.00
2018-03-08T07:11:31.697Z,604.00
2018-03-08T07:12:31.617Z,804.00
2018-03-08T07:13:31.537Z,832.00
2018-03-08T07:14:31.449Z,780.00
2018-03-08T07:15:31.367Z,1108.00
2018-03-08T07:16:31.286Z,1612.00
2018-03-08T07:17:31.205Z,1800.00
2018-03-08T07:18:31.130Z,1344.00
2018-03-08T07:19:31.041Z,1484.00
2018-03-08T07:20:30.963Z,1436.00
2018-03-08T07:21:30.879Z,2168.00
2018-03-08T07:22:30.855Z,2716.00
2018-03-08T07:23:30.715Z,2520.00
2018-03-08T07:24:30.635Z,2836.00
2018-03-08T07:25:30.556Z,2868.00
2018-03-08T07:26:30.470Z,2528.00
2018-03-08T07:27:30.390Z,2536.00
2018-03-08T07:28:30.409Z,2600.00
2018-03-08T07:29:30.228Z,3264.00
2018-03-08T07:30:30.146Z,3392.00
2018-03-08T07:31:30.066Z,2316.00
2018-03-08T07:32:29.984Z,2232.00
2018-03-08T07:33:29.904Z,3124.00
2018-03-08T07:34:29.821Z,3044.00
2018-03-08T07:35:29.741Z,2356.00
2018-03-08T07:36:29.660Z,3176.00
2018-03-08T07:37:29.580Z,2328.00
2018-03-08T07:38:29.498Z,2824.00
2018-03-08T07:39:29.418Z,2852.00
2018-03-08T07:40:29.338Z,3684.00
2018-03-08T07:41:29.259Z,3820.00
2018-03-08T07:42:29.174Z,4192.00
2018-03-08T07:43:29.094Z,4844.00
2018-03-08T07:44:29.013Z,4804.00
2018-03-08T07:45:28.936Z,4152.00
2018-03-08T07:46:28.852Z,3980.00
2018-03-08T07:47:28.773Z,4284.00
2018-03-08T07:48:28.991Z,4400.00
2018-03-08T07:49:28.611Z,3844.00
2018-03-08T07:50:28.529Z,4120.00
2018-03-08T07:51:28.449Z,3928.00
2018-03-08T07:52:28.369Z,3888.00
2018-03-08T07:53:28.290Z,4076.00
2018-03-08T07:54:28.208Z,3408.00
2018-03-08T07:55:28.127Z,2604.00
2018-03-08T07:56:28.048Z,3252.00
2018-03-08T07:57:27.968Z,3304.00
2018-03-08T07:58:27.887Z,2836.00
2018-03-08T07:59:27.808Z,3320.00
2018-03-08T08:00:27.728Z,3248.00
2018-03-08T08:01:27.650Z,3204.00
2018-03-08T08:02:27.567Z,3024.00
2018-03-08T08:03:27.487Z,2792.00
2018-03-08T08:04:27.408Z,2916.00
2018-03-08T08:05:27.328Z,2780.00
2018-03-08T08:06:27.250Z,3056.00
2018-03-08T08:07:27.168Z,2728.00
2018-03-08T08:08:27.089Z,2932.00
2018-03-08T08:09:27.010Z,2996.00
2018-03-08T08:10:26.933Z,2724.00
2018-03-08T08:11:26.849Z,2872.00
2018-03-08T08:12:26.769Z,3816.00
2018-03-08T08:13:26.692Z,4700.00
2018-03-08T08:14:26.610Z,5296.00
2018-03-08T08:15:26.535Z,5596.00
2018-03-08T08:16:26.450Z,5480.00
2018-03-08T08:17:26.372Z,5588.00
2018-03-08T08:18:26.291Z,5376.00
2018-03-08T08:19:26.211Z,5612.00
2018-03-08T08:20:26.137Z,5228.00
2018-03-08T08:21:26.054Z,5152.00
2018-03-08T08:22:25.972Z,5148.00
2018-03-08T08:23:25.893Z,5188.00
2018-03-08T08:24:25.814Z,5212.00
2018-03-08T08:25:25.736Z,5412.00
2018-03-08T08:26:25.655Z,5432.00
2018-03-08T08:27:25.576Z,5228.00
2018-03-08T08:28:25.497Z,5556.00
2018-03-08T08:29:25.417Z,5388.00
2018-03-08T08:30:25.338Z,5344.00
2018-03-08T08:31:25.259Z,4980.00
2018-03-08T08:32:25.180Z,5188.00
2018-03-08T08:33:25.101Z,5056.00
2018-03-08T08:34:25.020Z,5100.00
2018-03-08T08:35:24.941Z,5372.00
2018-03-08T08:36:24.862Z,5344.00
2018-03-08T08:37:24.783Z,5640.00
2018-03-08T08:38:24.706Z,5964.00
2018-03-08T08:39:24.624Z,6136.00
2018-03-08T08:40:24.545Z,6408.00
2018-03-08T08:41:24.466Z,6396.00
2018-03-08T08:42:24.386Z,5892.00
2018-03-08T08:43:24.308Z,5776.00
2018-03-08T08:44:24.228Z,6500.00
2018-03-08T08:45:24.149Z,6064.00
2018-03-08T08:46:24.070Z,6312.00
2018-03-08T08:47:23.990Z,6196.00
2018-03-08T08:48:23.911Z,6228.00
2018-03-08T08:49:23.832Z,6232.00
2018-03-08T08:50:23.752Z,6444.00
2018-03-08T08:51:23.674Z,6620.00
2018-03-08T08:52:23.595Z,5968.00
2018-03-08T08:53:23.517Z,5676.00
2018-03-08T08:54:23.438Z,6612.00
2018-03-08T08:55:23.358Z,7160.00
2018-03-08T08:56:23.280Z,7828.00
2018-03-08T08:57:23.202Z,7052.00
2018-03-08T08:58:23.122Z,6732.00
2018-03-08T08:59:23.044Z,7196.00
2018-03-08T09:00:22.964Z,7544.00
2018-03-08T09:01:22.888Z,7376.00
2018-03-08T09:02:22.808Z,7156.00
2018-03-08T09:03:22.730Z,7104.00
2018-03-08T09:04:22.652Z,6904.00
2018-03-08T09:05:22.573Z,7344.00
2018-03-08T09:06:22.496Z,7404.00
2018-03-08T09:07:22.417Z,6692.00
2018-03-08T09:08:22.340Z,6576.00
2018-03-08T09:09:22.262Z,7136.00
2018-03-08T09:10:22.182Z,6716.00
2018-03-08T09:11:22.104Z,6336.00
2018-03-08T09:12:22.026Z,6676.00
2018-03-08T09:13:21.957Z,6532.00
2018-03-08T09:14:21.872Z,5352.00
2018-03-08T09:15:21.792Z,4280.00
2018-03-08T09:16:21.714Z,4124.00
2018-03-08T09:17:21.636Z,6092.00
2018-03-08T09:18:21.557Z,7168.00
2018-03-08T09:19:21.480Z,8220.00
2018-03-08T09:20:21.401Z,8252.00
2018-03-08T09:21:21.323Z,8768.00
2018-03-08T09:22:21.244Z,8252.00
2018-03-08T09:23:21.166Z,8040.00
2018-03-08T09:24:21.088Z,8364.00
2018-03-08T09:25:21.011Z,7916.00
2018-03-08T09:26:20.935Z,7924.00
2018-03-08T09:27:20.855Z,7184.00
2018-03-08T09:28:20.776Z,7836.00
2018-03-08T09:29:20.698Z,8288.00
2018-03-08T09:30:20.621Z,7540.00
2018-03-08T09:31:20.540Z,6900.00
2018-03-08T09:32:20.465Z,7160.00
2018-03-08T09:33:20.387Z,7324.00
2018-03-08T09:34:20.309Z,7292.00
2018-03-08T09:35:20.234Z,6980.00
2018-03-08T09:36:20.154Z,6412.00
2018-03-08T09:37:20.076Z,7040.00
2018-03-08T09:38:19.997Z,6388.00
2018-03-08T09:39:19.919Z,6104.00
2018-03-08T09:40:19.842Z,6800.00
2018-03-08T09:41:19.766Z,6256.00
2018-03-08T09:42:19.689Z,4852.00
2018-03-08T09:43:19.610Z,7000.00
2018-03-08T09:44:19.531Z,4424.00
2018-03-08T09:45:19.454Z,7060.00
2018-03-08T09:46:19.376Z,7384.00
2018-03-08T09:47:19.298Z,7812.00
2018-03-08T09:48:19.222Z,9400.00
2018-03-08T09:49:19.142Z,7504.00
2018-03-08T09:50:19.069Z,5792.00
2018-03-08T09:51:18.996Z,6704.00
2018-03-08T09:52:18.910Z,5860.00
2018-03-08T09:53:18.832Z,6460.00
2018-03-08T09:54:18.754Z,5816.00
2018-03-08T09:55:18.676Z,5960.00
2018-03-08T09:56:18.599Z,7284.00
2018-03-08T09:57:18.521Z,6128.00
2018-03-08T09:58:18.446Z,6620.00
2018-03-08T09:59:18.366Z,6160.00
2018-03-08T10:00:18.292Z,6464.00
2018-03-08T10:01:18.211Z,9004.00
2018-03-08T10:02:18.133Z,7608.00
2018-03-08T10:03:18.054Z,7460.00
2018-03-08T10:04:17.978Z,7512.00
2018-03-08T10:05:17.901Z,8088.00
2018-03-08T10:06:17.825Z,8300.00
2018-03-08T10:07:17.745Z,8036.00
2018-03-08T10:08:17.669Z,11200.00
2018-03-08T10:09:17.590Z,17408.00
2018-03-08T10:10:17.515Z,11124.00
2018-03-08T10:11:17.435Z,8636.00
2018-03-08T10:12:17.359Z,8668.00
2018-03-08T10:13:17.281Z,7684.00
2018-03-08T10:14:17.202Z,11792.00
2018-03-08T10:15:17.126Z,7212.00
2018-03-08T10:16:17.049Z,9388.00
2018-03-08T10:17:16.972Z,11012.00
2018-03-08T10:18:16.895Z,8908.00
2018-03-08T10:19:16.819Z,10944.00
2018-03-08T10:20:16.741Z,10904.00
2018-03-08T10:21:16.665Z,19584.00
2018-03-08T10:22:16.588Z,12992.00
2018-03-08T10:23:16.510Z,9068.00
2018-03-08T10:24:16.433Z,9356.00
2018-03-08T10:25:16.357Z,9488.00
2018-03-08T10:26:16.279Z,7652.00
2018-03-08T10:27:16.203Z,5064.00
2018-03-08T10:28:16.127Z,7908.00
2018-03-08T10:29:16.053Z,26208.00
2018-03-08T10:30:15.974Z,8372.00
2018-03-08T10:31:15.896Z,35008.00
2018-03-08T10:32:15.818Z,8780.00
2018-03-08T10:33:15.767Z,23424.00
2018-03-08T10:34:15.668Z,10104.00
2018-03-08T10:35:15.589Z,8712.00
2018-03-08T10:36:15.515Z,14772.00
2018-03-08T10:37:15.438Z,14664.00
2018-03-08T10:38:15.360Z,29856.00
2018-03-08T10:40:15.208Z,9440.00
2018-03-08T10:41:15.142Z,15756.00
2018-03-08T10:42:15.055Z,9292.00
2018-03-08T10:43:14.979Z,9508.00
2018-03-08T10:44:14.913Z,5416.00
2018-03-08T10:45:14.829Z,8204.00
2018-03-08T10:46:14.751Z,9864.00
2018-03-08T10:47:14.679Z,9892.00
2018-03-08T10:48:14.599Z,25312.00
2018-03-08T10:49:14.528Z,9288.00
2018-03-08T10:50:14.447Z,5768.00
2018-03-08T10:51:14.372Z,6472.00
2018-03-08T10:52:14.296Z,9156.00
2018-03-08T10:53:14.220Z,8608.00
2018-03-08T10:54:14.182Z,8304.00
2018-03-08T10:55:14.067Z,10692.00
2018-03-08T10:56:13.991Z,12444.00
2018-03-08T10:57:13.915Z,14840.00
2018-03-08T10:58:13.839Z,19392.00
2018-03-08T10:59:13.762Z,12040.00
2018-03-08T11:00:13.686Z,7340.00
2018-03-08T11:01:13.610Z,6244.00
2018-03-08T11:02:13.534Z,5040.00
2018-03-08T11:03:13.459Z,5508.00
2018-03-08T11:04:13.383Z,5764.00
2018-03-08T11:05:13.307Z,4436.00
2018-03-08T11:06:13.231Z,3036.00
2018-03-08T11:07:13.154Z,2968.00
2018-03-08T11:08:13.078Z,3204.00
2018-03-08T11:09:13.003Z,4712.00
2018-03-08T11:10:12.926Z,7116.00
2018-03-08T11:11:12.849Z,11988.00
2018-03-08T11:12:12.774Z,23040.00
2018-03-08T11:13:12.698Z,11328.00
2018-03-08T11:14:12.621Z,6692.00
2018-03-08T11:15:12.545Z,7172.00
2018-03-08T11:16:12.507Z,9220.00
2018-03-08T11:17:12.393Z,11292.00
2018-03-08T11:18:12.358Z,28256.00
2018-03-08T11:19:12.242Z,14132.00
2018-03-08T11:20:12.165Z,13516.00
2018-03-08T11:21:12.089Z,8720.00
2018-03-08T11:22:12.013Z,11712.00
2018-03-08T11:23:11.937Z,10556.00
2018-03-08T11:24:11.861Z,6712.00
2018-03-08T11:25:11.786Z,6332.00
2018-03-08T11:26:11.708Z,7024.00
2018-03-08T11:27:11.633Z,5928.00
2018-03-08T11:28:11.558Z,9336.00
2018-03-08T11:29:11.481Z,9048.00
2018-03-08T11:30:11.404Z,7128.00
2018-03-08T11:31:11.330Z,8284.00
2018-03-08T11:32:11.254Z,10444.00
2018-03-08T11:33:11.178Z,9588.00
2018-03-08T11:34:11.105Z,8156.00
2018-03-08T11:35:11.026Z,5856.00
2018-03-08T11:36:10.951Z,8252.00
2018-03-08T11:37:10.874Z,12004.00
2018-03-08T11:38:10.797Z,8052.00
2018-03-08T11:39:10.721Z,5448.00
2018-03-08T11:40:10.646Z,13576.00
2018-03-08T11:41:10.569Z,10976.00
2018-03-08T11:42:10.492Z,67392.00
2018-03-08T11:43:10.416Z,30496.00
2018-03-08T11:44:10.342Z,12440.00
2018-03-08T11:45:10.264Z,8820.00
2018-03-08T11:46:10.189Z,9720.00
2018-03-08T11:47:10.113Z,13452.00
2018-03-08T11:48:10.631Z,46400.00
2018-03-08T11:49:09.966Z,24128.00
2018-03-08T11:50:09.887Z,63520.00
2018-03-08T11:51:09.813Z,34496.00
2018-03-08T11:52:09.743Z,8980.00
2018-03-08T11:53:09.664Z,6212.00
2018-03-08T11:54:09.593Z,7644.00
2018-03-08T11:55:09.915Z,68192.00
2018-03-08T11:56:09.442Z,35360.00
2018-03-08T11:57:09.368Z,13016.00
2018-03-08T11:58:09.294Z,96672.00
2018-03-08T11:59:09.220Z,89952.00
2018-03-08T12:00:09.147Z,94336.00
2018-03-08T12:01:09.077Z,88160.00
2018-03-08T12:02:09.000Z,92448.00
2018-03-08T12:03:08.929Z,96320.00
2018-03-08T12:04:08.860Z,10488.00
2018-03-08T12:05:08.784Z,17280.00
2018-03-08T12:06:08.714Z,17728.00
2018-03-08T12:07:08.644Z,9964.00
2018-03-08T12:08:08.573Z,16224.00
2018-03-08T12:09:08.503Z,12036.00
2018-03-08T12:10:08.435Z,26848.00
2018-03-08T12:11:08.361Z,10384.00
2018-03-08T12:12:08.289Z,10172.00
2018-03-08T12:13:08.223Z,11444.00
2018-03-08T12:14:08.146Z,12020.00
2018-03-08T12:15:08.075Z,11040.00
2018-03-08T12:16:08.003Z,92032.00
2018-03-08T12:17:07.952Z,18016.00
2018-03-08T12:18:07.858Z,14772.00
2018-03-08T12:19:07.787Z,13148.00
2018-03-08T12:20:07.715Z,8604.00
2018-03-08T12:21:07.641Z,10152.00
2018-03-08T12:22:07.568Z,14024.00
2018-03-08T12:23:07.504Z,25440.00
2018-03-08T12:24:07.422Z,10676.00
2018-03-08T12:25:07.349Z,9160.00
2018-03-08T12:26:07.275Z,6856.00
2018-03-08T12:27:07.203Z,7808.00
2018-03-08T12:28:07.144Z,12456.00
2018-03-08T12:29:07.057Z,9164.00
2018-03-08T12:30:06.983Z,10540.00
2018-03-08T12:31:06.910Z,10832.00
2018-03-08T12:32:06.837Z,10848.00
2018-03-08T12:33:06.763Z,27808.00
2018-03-08T12:34:06.690Z,68320.00
2018-03-08T12:35:06.615Z,19680.00
2018-03-08T12:36:06.541Z,15056.00